Time;durP1;ratioP1;P1;durP2;ratioP2;P2;SDS_P1;SDS_P2;PMS_P1;PMS_P2;Temp;Humidity;BMP_temperature;BMP_pressure;BME280_temperature;BME280_humidity;BME280_pressure;Samples;Min_cycle;Max_cycle;Signal;HPM_P1;HPM_P2
2023/09/10 00:00:15;;;;;;;15.60;14.33;;;;;;;21.50;70.34;98081.75;5005385;28;20497;-73
2023/09/10 00:02:42;;;;;;;15.90;14.60;;;;;;;21.22;71.12;98083.84;4992455;28;20457;-73
2023/09/10 00:05:09;;;;;;;17.70;16.30;;;;;;;21.06;72.11;98091.22;4991907;28;20465;-73
2023/09/10 00:07:35;;;;;;;17.90;16.40;;;;;;;21.16;72.14;98090.41;4992376;28;20465;-74
2023/09/10 00:10:04;;;;;;;19.00;17.60;;;;;;;21.07;72.42;98092.03;4993371;28;20635;-73
2023/09/10 00:12:31;;;;;;;19.87;18.00;;;;;;;20.86;73.74;98090.25;4995012;28;20931;-74
2023/09/10 00:14:58;;;;;;;17.10;15.70;;;;;;;20.80;73.96;98092.97;4992577;28;20644;-74
2023/09/10 00:17:25;;;;;;;18.00;16.53;;;;;;;20.88;74.10;98090.84;5003668;28;20533;-74
2023/09/10 00:19:51;;;;;;;19.87;18.03;;;;;;;20.71;74.60;98091.84;4991295;28;20476;-74
2023/09/10 00:22:18;;;;;;;20.00;18.40;;;;;;;20.57;75.49;98101.66;4993348;28;20544;-74
2023/09/10 00:24:45;;;;;;;21.50;19.57;;;;;;;20.31;76.63;98095.13;4997057;28;20528;-75
2023/09/10 00:27:14;;;;;;;19.73;18.23;;;;;;;20.34;76.68;98082.78;5001788;28;20488;-74
2023/09/10 00:29:41;;;;;;;20.67;19.00;;;;;;;20.28;77.09;98097.56;4993498;28;20921;-74
2023/09/10 00:32:07;;;;;;;20.93;19.13;;;;;;;20.20;77.36;98092.53;4992007;28;20490;-74
2023/09/10 00:34:34;;;;;;;19.87;18.13;;;;;;;20.06;78.42;98101.25;4991332;28;20531;-74
2023/09/10 00:37:01;;;;;;;19.03;17.43;;;;;;;20.03;78.56;98099.03;4991547;28;20493;-74
2023/09/10 00:39:28;;;;;;;18.70;17.00;;;;;;;20.00;78.46;98101.47;4991746;28;20571;-75
2023/09/10 00:41:55;;;;;;;20.17;18.27;;;;;;;19.82;79.01;98094.41;4991989;28;20459;-74
2023/09/10 00:44:23;;;;;;;17.80;16.30;;;;;;;19.76;79.53;98090.81;4992664;28;20459;-73
2023/09/10 00:46:50;;;;;;;18.37;16.83;;;;;;;19.71;79.42;98092.69;4995140;28;20563;-74
2023/09/10 00:49:17;;;;;;;17.70;16.27;;;;;;;19.73;78.99;98096.00;4993953;28;21060;-73
2023/09/10 00:51:44;;;;;;;17.80;16.27;;;;;;;19.59;79.47;98086.50;4990938;28;20537;-74
2023/09/10 00:54:11;;;;;;;16.57;15.10;;;;;;;19.57;79.80;98091.41;5009572;28;20548;-74
2023/09/10 00:56:38;;;;;;;16.60;15.20;;;;;;;19.63;79.62;98093.13;4996872;28;20978;-74
2023/09/10 00:59:05;;;;;;;17.17;15.77;;;;;;;19.69;79.32;98084.69;4994192;28;20509;-74
2023/09/10 01:01:33;;;;;;;17.90;16.40;;;;;;;19.58;79.88;98093.09;4991595;28;20991;-73
2023/09/10 01:04:01;;;;;;;16.90;15.30;;;;;;;19.73;79.40;98085.00;4990809;28;21053;-74
2023/09/10 01:06:27;;;;;;;15.50;14.10;;;;;;;19.77;79.31;98086.16;4990793;28;20504;-74
2023/09/10 01:08:54;;;;;;;15.97;14.47;;;;;;;19.89;78.85;98091.47;4992695;28;20508;-73
2023/09/10 01:11:26;;;;;;;16.37;15.07;;;;;;;19.84;78.51;98070.25;4993078;28;20462;-74
2023/09/10 01:14:00;;;;;;;14.83;13.57;;;;;;;20.13;77.57;98088.13;4997927;28;20545;-74
2023/09/10 01:16:32;;;;;;;16.37;15.00;;;;;;;20.07;77.67;98096.59;4992911;28;21126;-74
2023/09/10 01:19:04;;;;;;;14.93;13.73;;;;;;;20.09;77.42;98088.91;5001875;28;21089;-74
2023/09/10 01:21:42;;;;;;;16.07;14.67;;;;;;;20.13;77.39;98090.88;4998077;28;20912;-73
2023/09/10 01:24:14;;;;;;;16.37;15.00;;;;;;;20.27;76.74;98083.00;5007446;28;20463;-73
2023/09/10 01:26:43;;;;;;;15.30;14.10;;;;;;;20.19;76.78;98083.47;4992412;28;20549;-73
2023/09/10 01:29:12;;;;;;;15.30;14.00;;;;;;;20.25;76.28;98087.09;4994450;28;20479;-74
2023/09/10 01:31:41;;;;;;;16.33;14.73;;;;;;;20.10;76.03;98052.94;4991504;28;20554;-75
2023/09/10 01:34:10;;;;;;;15.40;14.13;;;;;;;20.30;75.95;98082.47;4990838;28;20520;-74
2023/09/10 01:36:40;;;;;;;15.37;14.03;;;;;;;20.50;75.62;98086.47;5000978;28;20459;-76
2023/09/10 01:39:13;;;;;;;15.90;14.47;;;;;;;20.44;75.51;98080.13;4996393;28;21091;-75
2023/09/10 01:41:40;;;;;;;16.10;14.70;;;;;;;20.23;76.16;98086.53;4990518;28;20467;-75
2023/09/10 01:44:09;;;;;;;17.40;15.80;;;;;;;20.07;77.06;98074.59;4992758;28;20989;-74
2023/09/10 01:46:37;;;;;;;16.50;15.10;;;;;;;20.07;77.04;98083.69;4990158;28;20937;-74
2023/09/10 01:49:04;;;;;;;16.90;15.50;;;;;;;20.05;77.57;98085.03;4992121;28;20897;-74
2023/09/10 01:51:31;;;;;;;18.63;16.93;;;;;;;19.90;78.82;98084.88;4992334;28;20458;-69
2023/09/10 01:53:58;;;;;;;17.73;16.43;;;;;;;19.57;81.02;98081.28;5001752;28;21132;-69
2023/09/10 01:56:25;;;;;;;19.10;17.50;;;;;;;19.35;82.11;98084.03;4990970;28;20546;-68
2023/09/10 01:58:51;;;;;;;19.13;17.43;;;;;;;19.21;83.32;98081.94;4992168;28;20493;-69
2023/09/10 02:01:19;;;;;;;18.60;17.10;;;;;;;19.09;84.02;98073.84;4992762;28;20532;-68
2023/09/10 02:03:46;;;;;;;19.53;18.03;;;;;;;19.01;84.15;98079.78;4994160;28;20465;-68
2023/09/10 02:06:13;;;;;;;20.03;18.17;;;;;;;18.77;85.67;98079.22;4990521;28;20537;-69
2023/09/10 02:08:40;;;;;;;18.70;17.20;;;;;;;18.66;86.39;98080.13;4994266;28;20478;-68
2023/09/10 02:11:07;;;;;;;19.40;17.80;;;;;;;18.71;86.44;98083.78;4995210;28;20484;-68
2023/09/10 02:13:34;;;;;;;19.20;17.60;;;;;;;18.74;86.46;98076.97;4999085;28;20723;-68
2023/09/10 02:16:01;;;;;;;20.63;18.77;;;;;;;18.81;86.07;98072.13;4995911;28;20501;-68
2023/09/10 02:18:30;;;;;;;20.10;18.50;;;;;;;18.71;86.44;98088.44;4990259;28;20549;-68
2023/09/10 02:20:57;;;;;;;18.30;16.70;;;;;;;18.73;86.53;98078.88;4996345;28;20537;-69
2023/09/10 02:23:24;;;;;;;19.70;18.00;;;;;;;18.76;85.85;98083.84;4989075;28;20450;-68
2023/09/10 02:25:51;;;;;;;21.00;19.30;;;;;;;18.71;86.42;98072.81;4990624;28;21053;-69
2023/09/10 02:28:23;;;;;;;19.13;17.80;;;;;;;18.73;86.44;98081.63;5005408;28;20962;-69
2023/09/10 02:30:50;;;;;;;17.20;15.70;;;;;;;18.75;86.18;98084.94;4991473;28;21247;-69
2023/09/10 02:33:17;;;;;;;18.13;16.63;;;;;;;18.86;85.51;98085.88;4998111;28;20486;-69
2023/09/10 02:35:45;;;;;;;18.17;16.70;;;;;;;18.78;85.70;98084.44;4990713;28;20551;-69
2023/09/10 02:38:12;;;;;;;17.47;15.87;;;;;;;18.80;85.51;98084.19;4991425;28;20567;-69
2023/09/10 02:40:39;;;;;;;17.67;16.27;;;;;;;18.81;85.62;98076.78;4999293;28;20456;-69
2023/09/10 02:43:05;;;;;;;15.80;14.50;;;;;;;18.73;85.64;98078.88;5006401;28;20449;-68
2023/09/10 02:45:32;;;;;;;17.53;15.90;;;;;;;18.82;85.54;98078.44;4994953;28;20549;-69
2023/09/10 02:47:59;;;;;;;16.33;15.07;;;;;;;18.79;85.34;98079.78;4995305;28;20464;-69
2023/09/10 02:50:26;;;;;;;16.23;14.67;;;;;;;18.77;85.26;98077.28;4989974;28;20485;-69
2023/09/10 02:52:54;;;;;;;15.03;13.80;;;;;;;18.81;85.35;98083.09;4988513;28;20575;-69
2023/09/10 02:55:22;;;;;;;15.63;14.40;;;;;;;18.82;85.27;98083.94;4995648;28;20541;-69
2023/09/10 02:57:48;;;;;;;15.90;14.60;;;;;;;19.00;84.45;98080.88;4991347;28;20464;-70
2023/09/10 03:00:19;;;;;;;17.20;15.80;;;;;;;18.87;84.79;98081.22;4992739;28;20481;-69
2023/09/10 03:02:46;;;;;;;15.40;14.20;;;;;;;18.82;85.08;98078.44;5008057;28;20871;-69
2023/09/10 03:05:13;;;;;;;16.50;15.17;;;;;;;18.73;85.32;98073.41;4997052;28;21048;-69
2023/09/10 03:07:40;;;;;;;17.63;16.13;;;;;;;18.81;84.69;98076.78;4990229;28;20486;-69
2023/09/10 03:10:09;;;;;;;18.13;16.53;;;;;;;18.73;85.25;98080.78;4997891;28;20480;-69
2023/09/10 03:12:36;;;;;;;18.50;16.80;;;;;;;18.76;85.37;98075.63;5002752;28;20453;-69
2023/09/10 03:15:03;;;;;;;17.67;16.03;;;;;;;18.79;85.60;98086.09;4993098;28;20458;-69
2023/09/10 03:17:30;;;;;;;19.80;18.27;;;;;;;18.73;85.89;98081.63;4996266;28;20463;-70
2023/09/10 03:19:57;;;;;;;19.80;18.00;;;;;;;18.67;86.37;98088.13;5001781;28;20551;-68
2023/09/10 03:22:23;;;;;;;18.60;17.07;;;;;;;18.75;85.79;98084.94;4993273;28;20488;-69
2023/09/10 03:24:50;;;;;;;18.57;17.07;;;;;;;18.62;86.20;98093.53;5000424;28;20477;-69
2023/09/10 03:27:18;;;;;;;18.70;17.20;;;;;;;18.65;86.21;98090.28;4994332;28;20462;-69
2023/09/10 03:29:45;;;;;;;18.03;16.43;;;;;;;18.67;86.08;98099.06;5000660;28;20546;-68
2023/09/10 03:32:12;;;;;;;20.33;18.60;;;;;;;18.58;86.09;98089.59;5006805;28;20475;-69
2023/09/10 03:34:39;;;;;;;17.83;16.37;;;;;;;18.48;87.02;98088.63;4999857;28;20911;-67
2023/09/10 03:37:06;;;;;;;17.20;15.80;;;;;;;18.57;86.31;98082.44;4996608;28;21033;-67
2023/09/10 03:39:33;;;;;;;18.43;16.90;;;;;;;18.58;86.26;98091.50;4998704;28;20556;-68
2023/09/10 03:42:00;;;;;;;16.97;15.53;;;;;;;18.56;86.63;98090.91;5003646;28;20446;-68
2023/09/10 03:44:28;;;;;;;16.60;15.20;;;;;;;18.57;86.61;98082.44;4992265;28;20490;-68
2023/09/10 03:46:55;;;;;;;20.13;18.53;;;;;;;18.68;86.14;98077.97;5004578;28;20556;-68
2023/09/10 03:49:22;;;;;;;18.90;17.30;;;;;;;18.54;86.46;98087.59;4998667;28;20477;-68
2023/09/10 03:51:49;;;;;;;19.03;17.37;;;;;;;18.35;87.51;98076.09;5006544;28;20488;-68
2023/09/10 03:54:16;;;;;;;17.57;16.07;;;;;;;18.39;87.14;98080.81;5005133;28;20503;-69
2023/09/10 03:56:43;;;;;;;18.23;16.43;;;;;;;18.53;86.74;98084.03;4998433;28;20483;-68
2023/09/10 03:59:10;;;;;;;19.07;17.57;;;;;;;18.44;86.84;98086.38;4993659;28;20484;-68
2023/09/10 04:01:38;;;;;;;19.77;17.80;;;;;;;18.32;87.49;98079.34;4991932;28;20453;-68
2023/09/10 04:04:05;;;;;;;18.77;17.30;;;;;;;18.31;87.68;98086.72;4992748;28;20536;-69
2023/09/10 04:06:32;;;;;;;20.30;18.50;;;;;;;18.32;88.13;98090.31;4999352;28;20484;-68
2023/09/10 04:09:00;;;;;;;18.83;17.13;;;;;;;18.33;88.11;98091.97;4994316;28;20604;-68
2023/09/10 04:11:26;;;;;;;20.53;18.93;;;;;;;18.21;88.36;98085.72;5005171;28;20970;-68
2023/09/10 04:13:53;;;;;;;22.30;20.43;;;;;;;18.05;89.48;98090.97;5002152;28;20484;-68
2023/09/10 04:16:20;;;;;;;20.83;19.23;;;;;;;18.20;88.89;98093.13;4994709;28;20874;-68
2023/09/10 04:18:48;;;;;;;19.13;17.63;;;;;;;18.26;88.79;98102.25;4991806;28;20486;-68
2023/09/10 04:21:15;;;;;;;21.43;19.70;;;;;;;18.11;89.32;98090.00;4990099;28;21086;-68
2023/09/10 04:23:42;;;;;;;23.33;21.53;;;;;;;18.01;90.01;98094.47;5000349;28;20501;-68
2023/09/10 04:26:12;;;;;;;22.50;20.63;;;;;;;17.92;90.55;98101.41;4993063;28;20518;-69
2023/09/10 04:28:39;;;;;;;22.60;20.90;;;;;;;17.85;90.88;98101.59;4994643;28;21008;-68
2023/09/10 04:31:08;;;;;;;21.43;19.67;;;;;;;17.82;91.22;98102.09;4996399;28;20541;-68
2023/09/10 04:33:34;;;;;;;20.77;18.97;;;;;;;17.88;91.03;98095.59;4993916;28;20957;-68
2023/09/10 04:36:03;;;;;;;23.30;21.40;;;;;;;17.82;90.80;98101.25;4999607;28;20904;-68
2023/09/10 04:38:29;;;;;;;21.90;20.10;;;;;;;17.85;90.71;98101.59;4997255;28;20482;-68
2023/09/10 04:40:56;;;;;;;22.63;20.87;;;;;;;17.81;90.80;98103.16;4996046;28;20544;-68
2023/09/10 04:43:23;;;;;;;23.63;21.77;;;;;;;17.75;91.08;98104.16;5000541;28;20988;-68
2023/09/10 04:45:50;;;;;;;21.30;19.70;;;;;;;17.78;90.75;98103.66;4991322;28;20458;-69
2023/09/10 04:48:17;;;;;;;21.47;19.70;;;;;;;17.71;91.10;98111.19;5004512;28;20567;-68
2023/09/10 04:50:45;;;;;;;22.80;20.80;;;;;;;17.70;91.34;98104.88;4996810;28;20561;-69
2023/09/10 04:53:14;;;;;;;20.37;18.60;;;;;;;17.75;91.02;98112.38;4995945;28;20452;-69
2023/09/10 04:55:41;;;;;;;22.30;20.30;;;;;;;17.68;91.09;98115.25;5000521;28;20457;-69
2023/09/10 04:58:08;;;;;;;20.80;19.10;;;;;;;17.75;90.58;98112.38;4992429;28;20512;-68
2023/09/10 05:00:34;;;;;;;21.60;19.70;;;;;;;17.61;91.16;98110.97;4990889;28;21103;-68
2023/09/10 05:03:01;;;;;;;22.23;20.50;;;;;;;17.54;91.46;98115.78;4991302;28;20461;-68
2023/09/10 05:05:28;;;;;;;19.17;17.63;;;;;;;17.64;91.25;98121.41;4989977;28;20476;-68
2023/09/10 05:07:55;;;;;;;18.87;17.47;;;;;;;17.65;91.17;98123.13;4993066;28;20590;-68
2023/09/10 05:10:23;;;;;;;20.70;19.10;;;;;;;17.69;90.69;98119.66;4990031;28;20469;-68
2023/09/10 05:12:51;;;;;;;19.53;17.97;;;;;;;17.73;90.87;98130.94;4990765;28;20464;-68
2023/09/10 05:15:18;;;;;;;19.93;17.97;;;;;;;17.76;90.50;98127.72;4993334;28;20489;-67
2023/09/10 05:17:45;;;;;;;21.67;19.87;;;;;;;17.80;90.40;98137.09;4990038;28;20953;-68
2023/09/10 05:20:12;;;;;;;22.50;20.57;;;;;;;17.58;91.38;98127.88;5005422;28;20503;-68
2023/09/10 05:22:39;;;;;;;20.47;18.97;;;;;;;17.73;91.29;98133.69;4995078;28;20489;-69
2023/09/10 05:25:06;;;;;;;21.83;20.13;;;;;;;17.85;90.76;98130.88;4992742;28;20463;-68
2023/09/10 05:27:35;;;;;;;24.83;22.53;;;;;;;17.87;90.56;98135.00;4990847;28;20465;-69
2023/09/10 05:30:02;;;;;;;23.27;21.37;;;;;;;17.81;91.55;98133.28;4993175;28;20564;-68
2023/09/10 05:32:28;;;;;;;23.50;21.50;;;;;;;17.82;91.34;98134.94;4993319;28;20456;-72
2023/09/10 05:34:56;;;;;;;25.37;23.37;;;;;;;17.83;91.43;98135.78;4996730;28;21016;-69
2023/09/10 05:37:23;;;;;;;24.63;22.73;;;;;;;17.84;91.41;98127.31;4993122;28;20989;-68
2023/09/10 05:39:50;;;;;;;24.10;22.03;;;;;;;17.87;91.69;98132.28;4990162;28;20482;-69
2023/09/10 05:42:17;;;;;;;26.47;24.40;;;;;;;17.92;91.01;98142.50;4995150;28;20466;-68
2023/09/10 05:44:45;;;;;;;24.93;22.83;;;;;;;17.94;90.67;98138.44;4990157;28;20493;-68
2023/09/10 05:47:12;;;;;;;24.93;22.90;;;;;;;17.97;90.69;98132.47;4995958;28;20452;-68
2023/09/10 05:49:39;;;;;;;24.93;22.90;;;;;;;17.90;91.12;98137.25;4991985;28;20498;-68
2023/09/10 05:52:06;;;;;;;24.27;22.23;;;;;;;17.92;91.09;98137.00;4987782;28;21160;-68
2023/09/10 05:54:32;;;;;;;21.47;19.80;;;;;;;18.23;90.04;98143.84;4992633;28;21009;-68
2023/09/10 05:56:59;;;;;;;21.43;19.67;;;;;;;18.42;88.82;98137.06;4991162;28;20512;-68
2023/09/10 05:59:26;;;;;;;20.90;19.20;;;;;;;18.37;88.50;98136.97;4991619;28;20499;-69
2023/09/10 06:01:54;;;;;;;21.13;19.30;;;;;;;18.75;87.77;98142.53;4989240;28;20515;-68
2023/09/10 06:04:21;;;;;;;20.70;19.00;;;;;;;19.08;85.81;98143.53;4989419;28;20561;-74
2023/09/10 06:06:48;;;;;;;20.17;18.47;;;;;;;19.33;84.44;98148.50;4996502;28;20458;-74
2023/09/10 06:09:15;;;;;;;19.27;17.77;;;;;;;19.61;82.90;98147.50;4992386;28;20536;-74
2023/09/10 06:11:42;;;;;;;21.73;19.90;;;;;;;19.80;81.88;98148.81;4992057;28;20461;-74
2023/09/10 06:14:09;;;;;;;20.03;18.43;;;;;;;19.72;81.62;98152.00;4994140;28;20545;-74
2023/09/10 06:16:36;;;;;;;18.00;16.50;;;;;;;19.79;81.20;98149.91;4992472;28;21052;-73
2023/09/10 06:19:04;;;;;;;17.83;16.33;;;;;;;20.28;79.40;98147.88;4990353;28;20482;-74
2023/09/10 06:21:31;;;;;;;15.83;14.53;;;;;;;20.63;77.43;98147.34;4991332;28;20451;-74
2023/09/10 06:23:58;;;;;;;16.50;15.07;;;;;;;20.90;76.21;98146.44;4990063;28;20452;-74
2023/09/10 06:26:25;;;;;;;14.90;13.60;;;;;;;21.28;74.22;98151.63;4992538;28;20467;-74
2023/09/10 06:28:52;;;;;;;14.10;12.87;;;;;;;21.88;71.72;98150.16;4990368;28;20478;-74
2023/09/10 06:31:19;;;;;;;14.90;13.60;;;;;;;22.20;69.91;98146.38;4996073;28;21197;-75
2023/09/10 06:33:45;;;;;;;14.40;13.30;;;;;;;22.34;69.42;98147.50;4992315;28;20587;-72
2023/09/10 06:36:15;;;;;;;14.93;13.67;;;;;;;22.71;67.32;98148.03;4990185;28;20458;-75
2023/09/10 06:38:47;;;;;;;13.67;12.47;;;;;;;23.07;66.11;98142.44;4994579;28;20885;-68
2023/09/10 06:41:15;;;;;;;15.40;13.87;;;;;;;23.23;65.37;98144.06;4990500;28;20505;-68
2023/09/10 06:43:41;;;;;;;14.20;12.90;;;;;;;23.44;64.81;98156.69;4989899;28;20454;-68
2023/09/10 06:46:08;;;;;;;13.60;12.60;;;;;;;23.23;65.59;98155.13;4996635;28;21010;-69
2023/09/10 06:48:35;;;;;;;14.63;13.47;;;;;;;23.52;64.34;98157.22;4983616;28;20479;-70
2023/09/10 06:51:02;;;;;;;12.93;11.60;;;;;;;23.13;66.03;98160.66;4988373;28;20532;-69
2023/09/10 06:53:31;;;;;;;13.50;12.50;;;;;;;23.34;64.85;98155.91;4992575;28;20453;-68
2023/09/10 06:55:58;;;;;;;13.10;12.00;;;;;;;23.71;64.19;98161.88;4992499;28;20906;-70
2023/09/10 06:58:25;;;;;;;13.60;12.60;;;;;;;23.83;62.59;98164.28;4996620;28;20480;-70
2023/09/10 07:00:51;;;;;;;12.90;11.90;;;;;;;23.93;62.77;98157.88;5000646;28;20449;-70
2023/09/10 07:03:18;;;;;;;14.10;12.97;;;;;;;24.28;61.66;98167.91;4994586;28;20557;-71
2023/09/10 07:05:45;;;;;;;13.50;12.17;;;;;;;25.15;58.47;98167.97;4994040;28;20464;-71
2023/09/10 07:08:12;;;;;;;13.37;12.30;;;;;;;24.94;59.28;98161.81;4994803;28;20539;-71
2023/09/10 07:10:40;;;;;;;14.00;12.80;;;;;;;25.01;59.42;98178.94;4993792;28;20908;-69
2023/09/10 07:13:07;;;;;;;12.13;11.23;;;;;;;24.78;59.90;98175.78;4994949;28;20452;-71
2023/09/10 07:15:36;;;;;;;12.80;11.80;;;;;;;25.01;59.03;98174.22;4992864;28;20826;-68
2023/09/10 07:18:04;;;;;;;13.60;12.60;;;;;;;25.60;57.06;98166.63;4993483;28;21031;-69
2023/09/10 07:20:30;;;;;;;12.23;11.20;;;;;;;25.35;57.59;98174.09;4995779;28;20527;-69
2023/09/10 07:22:57;;;;;;;13.47;12.40;;;;;;;25.27;57.79;98169.22;4996516;28;20523;-68
2023/09/10 07:25:24;;;;;;;11.50;10.70;;;;;;;25.42;57.79;98169.03;4995325;28;20544;-68
2023/09/10 07:27:53;;;;;;;12.07;11.07;;;;;;;26.11;55.31;98175.09;4999728;28;21032;-68
2023/09/10 07:30:19;;;;;;;12.17;11.10;;;;;;;26.61;54.02;98172.69;4994281;28;20472;-68
2023/09/10 07:32:47;;;;;;;12.30;11.33;;;;;;;27.00;52.77;98173.13;4999039;28;20968;-72
2023/09/10 07:35:16;;;;;;;12.53;11.43;;;;;;;27.55;51.14;98183.50;4992864;28;20493;-72
2023/09/10 07:37:42;;;;;;;11.60;10.70;;;;;;;27.27;51.62;98186.25;4993391;28;20478;-73
2023/09/10 07:40:10;;;;;;;11.23;10.43;;;;;;;27.54;51.54;98179.06;4995029;28;20469;-73
2023/09/10 07:42:37;;;;;;;12.33;11.20;;;;;;;27.22;51.74;98180.78;4993891;28;20524;-72
2023/09/10 07:45:13;;;;;;;13.10;11.87;;;;;;;27.79;50.04;98181.34;4995941;28;20466;-72
2023/09/10 07:47:40;;;;;;;11.67;10.67;;;;;;;28.50;48.10;98181.72;4996501;28;21115;-75
2023/09/10 07:50:08;;;;;;;11.43;10.60;;;;;;;28.59;47.73;98177.81;4993323;28;21155;-72
2023/09/10 07:52:34;;;;;;;10.70;10.00;;;;;;;28.64;47.74;98180.50;4992115;28;20453;-71
2023/09/10 07:55:01;;;;;;;11.27;10.30;;;;;;;29.05;45.84;98185.06;4992332;28;20492;-75
2023/09/10 07:57:28;;;;;;;13.37;12.20;;;;;;;29.48;44.77;98187.28;4997713;28;20457;-78
2023/09/10 07:59:55;;;;;;;12.50;11.67;;;;;;;29.23;45.71;98186.81;4993254;28;20529;-77
2023/09/10 08:02:26;;;;;;;12.23;11.43;;;;;;;29.04;45.93;98198.19;5000365;28;20525;-78
2023/09/10 08:04:53;;;;;;;11.30;10.40;;;;;;;29.25;45.50;98166.94;4995044;28;20730;-78
2023/09/10 08:07:20;;;;;;;12.57;11.53;;;;;;;29.58;45.03;98193.38;4992794;28;20460;-77
2023/09/10 08:09:47;;;;;;;12.80;11.60;;;;;;;29.69;43.68;98188.34;4975479;28;20588;-78
2023/09/10 08:12:14;;;;;;;11.80;10.70;;;;;;;29.71;44.79;98188.84;4992110;28;20473;-79
2023/09/10 08:14:41;;;;;;;10.67;9.77;;;;;;;30.15;43.36;98185.03;4993629;28;20526;-77
2023/09/10 08:17:08;;;;;;;12.20;11.30;;;;;;;30.51;42.68;98187.53;4985539;28;20788;-78
2023/09/10 08:19:36;;;;;;;10.87;10.03;;;;;;;30.90;41.76;98183.72;4990382;28;20476;-78
2023/09/10 08:22:03;;;;;;;10.17;9.47;;;;;;;31.30;40.89;98187.09;4990038;28;20936;-78
2023/09/10 08:24:30;;;;;;;11.73;10.53;;;;;;;31.64;39.98;98185.31;4992148;28;20489;-78
2023/09/10 08:27:01;;;;;;;10.30;9.40;;;;;;;31.74;39.22;98193.38;4991510;28;20475;-73
2023/09/10 08:29:28;;;;;;;9.60;8.70;;;;;;;31.64;40.17;98185.31;4994626;28;20488;-76
2023/09/10 08:31:55;;;;;;;10.30;9.50;;;;;;;32.03;39.18;98184.97;4991786;28;21378;-77
2023/09/10 08:34:22;;;;;;;10.00;9.00;;;;;;;32.90;37.31;98187.13;4992073;28;20505;-77
2023/09/10 08:36:50;;;;;;;9.37;8.50;;;;;;;33.30;36.12;98184.59;5000464;28;20464;-77
2023/09/10 08:39:17;;;;;;;9.80;9.10;;;;;;;33.49;35.55;98190.44;4999221;28;20476;-78
2023/09/10 08:41:49;;;;;;;9.10;8.37;;;;;;;33.05;36.45;98189.28;5003085;28;20515;-78
2023/09/10 08:44:17;;;;;;;8.90;8.10;;;;;;;33.35;35.40;98188.00;4996006;28;20533;-77
2023/09/10 08:46:45;;;;;;;9.70;9.00;;;;;;;33.67;34.96;98200.31;4994041;28;20501;-78
2023/09/10 08:49:13;;;;;;;9.63;8.97;;;;;;;33.75;34.63;98192.94;4997758;28;20473;-78
2023/09/10 08:51:40;;;;;;;8.87;7.93;;;;;;;33.96;34.74;98188.06;4993842;28;20811;-78
2023/09/10 08:54:09;;;;;;;8.80;8.10;;;;;;;34.26;33.37;98187.78;4996699;28;20553;-78
2023/09/10 08:56:36;;;;;;;9.20;8.50;;;;;;;34.17;33.69;98189.88;4994090;28;21118;-78
2023/09/10 08:59:04;;;;;;;9.77;8.77;;;;;;;33.25;35.28;98191.19;4995070;28;20489;-78
2023/09/10 09:01:31;;;;;;;8.70;8.10;;;;;;;33.52;35.05;98186.13;4992048;28;20462;-78
2023/09/10 09:03:58;;;;;;;9.13;8.40;;;;;;;33.78;34.33;98195.06;4992678;28;20753;-78
2023/09/10 09:06:29;;;;;;;10.40;9.57;;;;;;;34.32;32.98;98181.59;4995459;28;20544;-78
2023/09/10 09:08:57;;;;;;;8.73;8.03;;;;;;;34.92;32.82;98182.56;4996948;28;20898;-78
2023/09/10 09:11:26;;;;;;;9.33;8.63;;;;;;;34.96;31.93;98188.31;4998657;28;20462;-78
2023/09/10 09:13:54;;;;;;;8.70;7.70;;;;;;;35.63;30.37;98183.69;4995081;28;20453;-78
2023/09/10 09:16:21;;;;;;;9.27;8.53;;;;;;;36.04;31.13;98184.31;5004198;28;21047;-78
2023/09/10 09:18:49;;;;;;;8.40;7.70;;;;;;;35.64;31.10;98179.69;4993733;28;20474;-78
2023/09/10 09:21:18;;;;;;;9.67;8.97;;;;;;;35.08;31.90;98179.00;4997484;28;20465;-79
2023/09/10 09:23:47;;;;;;;8.80;8.17;;;;;;;34.09;33.77;98188.88;4999307;28;20453;-78
2023/09/10 09:26:15;;;;;;;9.10;8.30;;;;;;;34.96;32.71;98183.50;4998110;28;20548;-78
2023/09/10 09:28:43;;;;;;;9.10;8.37;;;;;;;34.35;32.79;98180.88;4996766;28;20485;-78
2023/09/10 09:31:11;;;;;;;8.57;7.97;;;;;;;33.67;34.62;98186.28;4998911;28;20437;-77
2023/09/10 09:33:37;;;;;;;8.20;7.60;;;;;;;34.24;33.80;98182.50;4998889;28;20457;-78
2023/09/10 09:36:08;;;;;;;8.70;8.10;;;;;;;34.53;33.67;98172.97;4998532;28;20476;-79
2023/09/10 09:38:35;;;;;;;9.70;8.90;;;;;;;34.53;32.56;98175.78;4993760;28;20999;-77
2023/09/10 09:41:03;;;;;;;8.23;7.73;;;;;;;35.42;31.16;98171.88;4996933;28;20458;-78
2023/09/10 09:43:32;;;;;;;9.03;8.23;;;;;;;35.82;30.70;98168.88;5004407;28;20845;-78
2023/09/10 09:46:01;;;;;;;8.33;7.73;;;;;;;36.41;30.34;98137.66;4991733;28;20666;-78
2023/09/10 09:48:28;;;;;;;9.00;8.30;;;;;;;36.94;29.37;98166.19;4993853;28;20465;-78
2023/09/10 09:50:55;;;;;;;8.80;7.90;;;;;;;36.89;29.82;98160.84;4994342;28;20454;-78
2023/09/10 09:53:24;;;;;;;8.90;8.20;;;;;;;36.86;29.84;98161.59;4989876;28;20487;-78
2023/09/10 09:55:54;;;;;;;8.90;8.13;;;;;;;36.95;29.24;98165.00;5002947;28;20496;-78
2023/09/10 09:58:21;;;;;;;8.50;7.77;;;;;;;36.48;29.72;98151.91;4993140;28;20473;-78
2023/09/10 10:00:48;;;;;;;8.40;7.70;;;;;;;36.47;30.07;98160.75;5002031;28;20972;-78
2023/09/10 10:03:17;;;;;;;8.00;7.37;;;;;;;36.46;29.42;98150.66;4994784;28;20708;-78
2023/09/10 10:05:44;;;;;;;7.50;6.90;;;;;;;36.13;29.86;98163.19;4997614;28;20625;-78
2023/09/10 10:08:11;;;;;;;10.13;9.17;;;;;;;36.21;28.91;98153.72;4996027;28;20580;-78
2023/09/10 10:10:46;;;;;;;8.70;7.93;;;;;;;36.36;29.03;98143.63;4993883;28;20497;-78
2023/09/10 10:13:16;;;;;;;8.23;7.47;;;;;;;37.10;28.11;98147.13;4995835;28;20564;-78
2023/09/10 10:15:43;;;;;;;9.10;8.47;;;;;;;37.32;26.87;98148.41;4989529;28;21024;-79
2023/09/10 10:18:10;;;;;;;8.60;7.90;;;;;;;37.32;27.61;98146.38;4993577;28;20473;-78
2023/09/10 10:20:39;;;;;;;8.50;7.37;;;;;;;36.67;28.29;98140.66;4993899;28;20540;-79
2023/09/10 10:23:06;;;;;;;7.03;6.43;;;;;;;37.09;27.53;98139.84;4993148;28;20461;-79
2023/09/10 10:25:33;;;;;;;7.00;6.50;;;;;;;37.21;27.43;98136.91;4996371;28;20454;-78
2023/09/10 10:28:00;;;;;;;7.40;6.87;;;;;;;36.90;27.55;98137.09;4994339;28;20481;-78
2023/09/10 10:30:29;;;;;;;7.70;7.10;;;;;;;37.19;27.46;98130.78;4997198;28;20449;-78
2023/09/10 10:32:56;;;;;;;7.83;7.23;;;;;;;37.24;26.77;98135.34;4998281;28;20941;-78
2023/09/10 10:35:25;;;;;;;7.13;6.60;;;;;;;37.03;27.29;98130.09;4993991;28;20493;-78
2023/09/10 10:37:58;;;;;;;9.03;7.50;;;;;;;37.43;27.48;98131.63;4999585;28;20470;-80
2023/09/10 10:40:29;;;;;;;7.90;7.40;;;;;;;36.66;27.51;98124.91;4994160;28;20467;-78
2023/09/10 10:42:59;;;;;;;7.90;7.30;;;;;;;37.39;27.18;98122.25;4998426;28;20858;-78
2023/09/10 10:45:26;;;;;;;8.63;8.03;;;;;;;36.78;26.65;98123.94;4995877;28;20504;-78
2023/09/10 10:47:53;;;;;;;7.60;7.10;;;;;;;36.20;27.75;98121.06;4994622;28;20533;-79
2023/09/10 10:50:22;;;;;;;7.00;6.50;;;;;;;36.13;28.02;98106.00;4997013;28;20482;-78
2023/09/10 10:52:59;;;;;;;7.77;6.97;;;;;;;36.75;27.27;98119.03;4993877;28;21024;-78
2023/09/10 10:55:27;;;;;;;7.27;6.67;;;;;;;36.90;26.96;98122.97;4995388;28;20478;-78
2023/09/10 10:57:54;;;;;;;7.97;7.47;;;;;;;37.18;25.57;98109.38;4996281;28;21541;-78
2023/09/10 11:00:21;;;;;;;6.90;6.40;;;;;;;37.59;25.63;98107.69;4995065;28;20464;-78
2023/09/10 11:02:49;;;;;;;6.47;5.90;;;;;;;38.52;23.99;98107.06;4996858;28;20531;-78
2023/09/10 11:05:16;;;;;;;7.10;6.60;;;;;;;38.29;23.52;98103.53;4997794;28;20489;-78
2023/09/10 11:07:45;;;;;;;6.53;6.13;;;;;;;38.87;23.03;98103.03;4993773;28;20474;-78
2023/09/10 11:10:41;;;;;;;6.73;6.27;;;;;;;39.13;22.94;98102.94;4988912;28;21153;-74
2023/09/10 11:13:10;;;;;;;6.53;6.03;;;;;;;39.30;22.14;98101.47;4994158;28;20459;-79
2023/09/10 11:15:37;;;;;;;6.13;5.70;;;;;;;39.28;22.23;98104.72;4995400;28;20485;-81
2023/09/10 11:18:42;;;;;;;7.10;6.70;;;;;;;38.19;22.92;98104.19;4997048;28;20802;-76
2023/09/10 11:21:10;;;;;;;7.03;6.50;;;;;;;37.15;24.88;98096.00;4993974;28;20549;-77
2023/09/10 11:23:38;;;;;;;6.80;6.30;;;;;;;36.51;26.14;98099.59;4994039;28;20519;-79